Station: Walgett  

  Atmospheric Gas Attenuation - ITU Rec 676-11   ----------------- dB/100km -----------------
Date Time Temp RH % AH g/m3 Dew Point Wind Direction Speed kph Gust kph Barometer mB Rainfall Since 9am 24GHz 47GHz 76GHz 122GHz 134GHz 241GHz
08/05 12:30 17.9 36 5.5 2.6 22 32 1024.1 0 12.9 20.6 27.1 70.4 57.4 195.0
08/05 12:20 18.2 19 24 1024.3 0
08/05 12:10 17.5 19 20 1024.4 0
08/05 12:00 17 38 5.5 2.6 17 30 1024.7 0 12.9 20.8 27.4 71.3 58.1 197.2
08/05 11:50 17.2 22 26 1024.7 0
08/05 11:40 17.1 17 24 1024.9 0
08/05 11:30 16.7 39 5.54 2.7 22 33 1025.1 0 13.0 21.0 27.7 71.9 58.7 199.6
08/05 11:20 16.1 22 28 1025.1 0
08/05 11:10 16.2 19 20 1025.2 0
08/05 11:00 16.4 41 5.72 3.1 19 28 1025.4 0 13.4 21.3 28.4 73.9 61.0 207.7
08/05 10:50 16 19 22 1025.4 0
08/05 10:40 15.8 24 28 1025.7 0
08/05 10:30 15.5 43 5.68 3 20 30 1025.7 0 13.3 21.5 28.6 74.3 61.3 208.4
08/05 10:20 14.9 22 24 1025.9 0
08/05 10:10 15 20 28 1026 0
08/05 10:00 14.5 44 5.47 2.4 24 35 1026.1 0 12.9 21.4 28.2 73.3 59.6 202.4
08/05 09:50 14.3 22 28 1026.2 0
08/05 09:40 14.6 20 24 1026.2 0
08/05 09:30 13.8 46 5.48 2.4 22 30 1026.2 0 13.0 21.6 28.5 74.0 60.3 204.5
08/05 09:20 13.1 20 22 1026.3 0
08/05 09:10 13.1 19 24 1026.3 0
08/05 09:00 12 48 5.12 1.3 20 30 1026.4 0 12.3 21.5 27.8 72.2 57.3 194.0
08/05 08:50 11.5 17 19 1026.4 0
08/05 08:40 10.9 19 20 1026.5 0
08/05 08:30 10.5 52 5.04 1.1 19 26 1026.4 0 12.1 21.7 28.0 72.8 57.4 194.2
08/05 08:20 9.8 15 19 1026.5 0
08/05 08:10 9.1 17 19 1026.4 0
08/05 08:00 7.9 59 4.85 0.4 11 17 1026.3 0 11.8 22.0 28.2 73.3 57.0 192.2
08/05 07:50 7.1 9 11 1026.3 0
08/05 07:40 6.1 9 11 1026.2 0
08/05 07:30 5.3 67 4.65 -0.3 11 13 1026.1 0 11.5 22.4 28.4 73.6 56.3 189.5
08/05 07:20 4.6 11 11 1025.9 0
08/05 07:10 3.7 11 11 1025.7 0
08/05 07:00 3 73 4.34 -1.4 11 13 1025.6 0 10.9 22.4 27.9 72.5 53.9 180.8
08/05 06:50 2.7 9 9 1025.6 0
08/05 06:40 2.8 11 11 1025.4 0
08/05 06:30 2.8 72 4.23 -1.7 11 11 1025.4 0 10.7 22.3 27.6 71.5 52.6 176.2
08/05 06:20 2.7 11 11 1025.3 0
08/05 06:10 3 11 11 1025.3 0
08/05 06:00 3.2 70 4.22 -1.7 9 11 1025.5 0 10.6 22.2 27.4 71.0 52.2 174.9
08/05 05:50 3.1 9 11 1025.3 0
08/05 05:40 3.2 9 11 1025.4 0
08/05 05:30 2.9 71 4.2 -1.8 11 13 1025.4 0 10.6 22.2 27.4 71.1 52.2 174.6
08/05 05:20 2.8 11 11 1025.3 0
08/05 05:10 3 9 11 1025.3 0
08/05 05:00 3.4 67 4.1 -2.1 9 11 1025.3 0 10.4 21.9 26.9 69.6 50.5 169.0
08/05 04:50 3.6 9 11 1025.2 0
08/05 04:40 3.5 9 9 1025.2 0
08/05 04:30 3.4 66 4.03 -2.3 9 11 1025.2 0 10.2 21.8 26.6 68.9 49.6 165.9
08/05 04:20 3.5 9 11 1025.2 0
08/05 04:10 3.4 9 9 1025.1 0
08/05 04:00 3.6 65 4.03 -2.3 9 11 1025.2 0 10.2 21.8 26.5 68.7 49.5 165.4
08/05 03:50 3.4 7 9 1025.1 0
08/05 03:40 3.5 7 9 1025.1 0
08/05 03:30 3.5 63 3.88 -2.9 11 13 1025.1 0 9.9 21.6 26.0 67.2 47.7 159.0
08/05 03:20 4.3 9 11 1025 0
08/05 03:10 5.5 15 17 1024.8 0
08/05 03:00 5.9 55 3.97 -2.4 15 20 1025.1 0 10.0 21.2 25.6 66.1 47.4 158.2
08/05 02:50 6.4 15 17 1024.9 0
08/05 02:40 6.6 15 17 1025 0
08/05 02:30 6.5 53 3.98 -2.4 17 20 1025 0 10.0 21.0 25.4 65.7 47.1 157.4
08/05 02:20 6.3 15 17 1024.9 0
08/05 02:10 6.2 15 19 1025 0
08/05 02:00 6.2 53 3.9 -2.7 15 20 1025 0 9.9 21.0 25.2 65.2 46.3 154.6
08/05 01:50 6.4 17 20 1025 0
08/05 01:40 6.6 15 17 1025 0
08/05 01:30 6.4 52 3.88 -2.7 15 20 1025.2 0 9.8 20.9 25.1 64.8 46.0 153.4
08/05 01:20 6.3 13 15 1025.1 0
08/05 01:10 6.1 15 17 1025.1 0
08/05 01:00 6.1 54 3.95 -2.5 15 17 1025.4 0 10.0 21.1 25.4 65.8 47.0 157.0
08/05 00:50 5.4 13 15 1025.3 0
08/05 00:40 5 13 15 1025.3 0
08/05 00:20 4.6 13 15 1025.3 0
08/05 00:10 5 11 13 1025.4 0
08/05 00:00 6.1 51 3.73 -3.3 13 17 1025.5 0 9.5 20.8 24.6 63.6 44.3 147.6
07/05 23:50 5.9 13 15 1025.4 0
07/05 23:40 6.2 11 13 1025.6 0
07/05 23:30 6.5 49 3.68 -3.4 11 13 1025.6 0 9.4 20.6 24.3 62.8 43.5 144.7
07/05 23:20 6.7 11 13 1025.7 0
07/05 23:10 7.4 9 11 1025.7 0
07/05 23:00 7.8 46 3.76 -3.1 13 17 1025.6 0 9.5 20.4 24.2 62.6 43.8 145.8
07/05 22:50 7.7 13 15 1025.7 0
07/05 22:40 7.6 11 13 1025.7 0
07/05 22:30 7.9 45 3.7 -3.3 13 17 1025.6 0 9.4 20.3 24.0 61.9 43.0 143.1
07/05 22:20 7.9 13 17 1025.7 0
07/05 22:10 6.5 13 17 1025.7 0
07/05 22:00 6.5 48 3.6 -3.7 11 13 1025.8 0 9.2 20.5 24.1 62.1 42.6 141.4
07/05 21:50 6.8 9 11 1025.8 0
07/05 21:40 7 11 13 1025.7 0
07/05 21:30 7.4 45 3.58 -3.7 9 15 1025.7 0 9.1 20.3 23.7 61.2 41.9 139.0
07/05 21:20 7.9 11 13 1025.6 0
07/05 21:10 7.9 13 15 1025.3 0
07/05 21:00 8.7 41 3.55 -3.8 11 15 1025.4 0 9.0 19.9 23.2 59.9 40.8 135.5
07/05 20:50 9.7 13 15 1025.1 0
07/05 20:40 10 17 17 1025 0
07/05 20:30 9.3 40 3.6 -3.6 13 17 1025 0 9.1 19.9 23.2 59.9 41.1 136.5
07/05 20:20 9.9 15 17 1024.8 0
07/05 20:10 8.5 13 15 1024.7 0
07/05 20:00 9.4 40 3.62 -3.5 13 20 1024.8 0 9.2 19.9 23.3 60.0 41.2 137.1
07/05 19:50 9.3 13 15 1024.6 0

Last Refresh: 08-May-2026 12:10:19

Bureau of Meteorology